EDAC/ADC METAR and TAF weather

Enter ICAO airport designator
Station Type Date Time Source
EDAC METAR 2022/01/27 23:20 UTC NOAA

EDAC 272320Z AUTO 26014KT 9999 // FEW035/// BKN040/// 04/01 Q1018


Station Type Date Time Source
EDAC Decoded METAR 2022/01/27 23:20 UTC NOAA

Altenburg Nobitz, Germany (EDAC) 50-58N 012-30E
Jan 27, 2022 - 06:20 PM EST / 2022.01.27 2320 UTC
Wind: from the W (260 degrees) at 16 MPH (14 KT):0
Visibility: greater than 7 mile(s):0
Sky conditions: mostly cloudy
Temperature: 39 F (4 C)
Dew Point: 33 F (1 C)
Relative Humidity: 80%
Pressure (altimeter): 30.06 in. Hg (1018 hPa)
ob: EDAC 272320Z AUTO 26014KT 9999 // FEW035/// BKN040/// 04/01 Q1018
cycle: 23

Station Type Date Time Source
EDAC TAF UTC NOAA

Error!

Example: see airport list